createdAt,value
2022-11-03T00:00:57.885Z,79.11
2022-11-03T00:06:08.349Z,79.56
2022-11-03T00:11:13.358Z,81.01
2022-11-03T00:16:16.364Z,79.53
2022-11-03T00:21:21.334Z,79.01
2022-11-03T00:26:26.253Z,79.36
2022-11-03T00:31:30.824Z,79.91
2022-11-03T00:36:36.909Z,82.25
2022-11-03T00:41:40.521Z,81.75
2022-11-03T00:46:43.638Z,80.44
2022-11-03T00:51:47.990Z,80.16
2022-11-03T00:56:51.038Z,81.16
2022-11-03T01:01:54.168Z,80.47
2022-11-03T01:07:00.376Z,79.81
2022-11-03T01:12:05.702Z,80.03
2022-11-03T01:17:10.445Z,79.98
2022-11-03T01:22:15.819Z,79.15
2022-11-03T01:27:20.832Z,79.43
2022-11-03T01:32:23.829Z,79.69
2022-11-03T01:37:28.175Z,79.69
2022-11-03T01:42:31.173Z,80.06
2022-11-03T01:47:37.069Z,78.60
2022-11-03T01:52:45.982Z,77.35
2022-11-03T01:57:55.744Z,76.73
2022-11-03T02:02:59.360Z,75.96
2022-11-03T02:13:21.024Z,77.08
2022-11-03T02:18:29.174Z,77.26
2022-11-03T02:23:42.073Z,75.95
2022-11-03T02:28:46.673Z,76.64
2022-11-03T02:33:55.035Z,77.60
2022-11-03T02:39:02.682Z,77.66
2022-11-03T02:44:13.625Z,77.26
2022-11-03T02:49:16.814Z,78.14
2022-11-03T02:54:24.698Z,79.25
2022-11-03T02:59:33.225Z,80.14
2022-11-03T03:04:38.646Z,79.35
2022-11-03T03:09:45.641Z,79.16
2022-11-03T03:14:51.998Z,80.10
2022-11-03T03:20:00.559Z,79.10
2022-11-03T03:25:12.424Z,80.01
2022-11-03T03:30:18.590Z,79.51
2022-11-03T03:35:25.599Z,79.61
2022-11-03T03:40:33.010Z,79.10
2022-11-03T03:45:38.171Z,79.11
2022-11-03T03:50:43.851Z,80.37
2022-11-03T03:55:51.497Z,80.51
2022-11-03T04:00:55.978Z,80.76
2022-11-03T04:05:58.994Z,80.43
2022-11-03T04:11:19.181Z,80.01
2022-11-03T04:16:41.000Z,79.88
2022-11-03T04:22:01.314Z,79.90
2022-11-03T04:27:30.923Z,81.75
2022-11-03T04:32:35.741Z,81.40
2022-11-03T04:37:42.494Z,80.28
2022-11-03T04:42:47.974Z,80.75
2022-11-03T04:47:54.137Z,80.52
2022-11-03T04:52:59.109Z,79.67
2022-11-03T04:58:08.543Z,79.25
2022-11-03T05:03:16.190Z,79.49
2022-11-03T05:08:20.609Z,79.54
2022-11-03T05:13:26.739Z,80.22
2022-11-03T05:18:33.607Z,78.66
2022-11-03T05:23:40.521Z,78.97
2022-11-03T05:28:45.654Z,80.25
2022-11-03T05:33:51.658Z,79.78
2022-11-03T05:38:59.774Z,80.05
2022-11-03T05:44:06.491Z,79.73
2022-11-03T05:49:12.278Z,79.75
2022-11-03T05:54:22.080Z,79.82
2022-11-03T05:59:29.285Z,80.28
2022-11-03T06:04:38.054Z,81.09
2022-11-03T06:09:42.254Z,80.38
2022-11-03T06:14:45.416Z,79.97
2022-11-03T06:19:51.711Z,80.37
2022-11-03T06:24:57.745Z,80.99
2022-11-03T06:30:03.880Z,79.99
2022-11-03T06:35:13.206Z,79.41
2022-11-03T06:40:35.445Z,79.79
2022-11-03T06:45:38.459Z,81.04
2022-11-03T06:50:44.945Z,80.48
2022-11-03T06:55:49.594Z,79.78
2022-11-03T07:00:52.760Z,81.52
2022-11-03T07:06:03.243Z,80.04
2022-11-03T07:11:13.356Z,79.30
2022-11-03T07:16:21.152Z,78.15
2022-11-03T07:21:37.455Z,80.72
2022-11-03T07:26:40.679Z,79.12
2022-11-03T07:31:43.704Z,78.75
2022-11-03T07:36:52.722Z,78.19
2022-11-03T07:41:58.562Z,78.54
2022-11-03T07:47:11.994Z,77.62
2022-11-03T07:52:21.014Z,76.66
2022-11-03T07:57:27.386Z,76.63
2022-11-03T08:02:34.244Z,76.38
2022-11-03T08:07:38.553Z,74.67
2022-11-03T08:12:41.460Z,73.73
2022-11-03T08:17:44.393Z,73.05
2022-11-03T08:23:05.056Z,76.16
2022-11-03T08:28:11.564Z,78.61
2022-11-03T08:33:14.548Z,78.42
2022-11-03T08:38:18.900Z,75.89
2022-11-03T08:43:22.044Z,74.46
2022-11-03T08:48:28.166Z,74.13
2022-11-03T08:53:32.427Z,74.47
2022-11-03T08:58:36.199Z,73.63
2022-11-03T09:03:39.879Z,72.51
2022-11-03T09:14:07.325Z,73.10
2022-11-03T09:19:10.266Z,72.10
2022-11-03T09:24:14.551Z,71.97
2022-11-03T09:29:17.543Z,70.82
2022-11-03T09:34:20.471Z,71.57
2022-11-03T09:39:24.780Z,71.99
2022-11-03T09:44:28.363Z,71.68
2022-11-03T09:49:33.552Z,70.22
2022-11-03T09:54:37.847Z,69.55
2022-11-03T09:59:44.025Z,69.77
2022-11-03T10:04:46.929Z,70.12
2022-11-03T10:09:53.560Z,70.19
2022-11-03T10:14:56.689Z,70.61
2022-11-03T10:19:59.761Z,69.36
2022-11-03T10:25:35.413Z,68.55
2022-11-03T10:31:10.123Z,67.21
2022-11-03T10:36:26.892Z,65.80
2022-11-03T10:41:33.042Z,64.54
2022-11-03T10:46:50.174Z,64.66
2022-11-03T10:51:55.866Z,63.35
2022-11-03T10:57:00.158Z,62.46
2022-11-03T11:02:04.045Z,57.68
2022-11-03T11:07:19.465Z,57.07
2022-11-03T11:12:25.508Z,58.88
2022-11-03T11:17:46.704Z,58.79
2022-11-03T11:22:50.917Z,54.44
2022-11-03T11:27:59.045Z,55.79
2022-11-03T11:33:02.730Z,53.28
2022-11-03T11:38:43.073Z,54.77
2022-11-03T11:43:47.351Z,53.66
2022-11-03T11:48:52.182Z,54.06
2022-11-03T11:54:16.595Z,54.08
2022-11-03T11:59:25.139Z,53.79
2022-11-03T12:04:31.594Z,54.99
2022-11-03T12:09:35.071Z,55.11
2022-11-03T12:14:40.380Z,55.36
2022-11-03T12:19:44.891Z,56.14
2022-11-03T12:24:50.821Z,56.68
2022-11-03T12:29:56.896Z,56.53
2022-11-03T12:34:59.970Z,56.34
2022-11-03T12:40:02.988Z,56.99
2022-11-03T12:45:08.514Z,56.18
2022-11-03T12:50:11.557Z,56.71
2022-11-03T12:55:14.618Z,58.41
2022-11-03T13:00:19.474Z,57.85
2022-11-03T13:05:22.433Z,58.03
2022-11-03T13:10:25.364Z,57.85
2022-11-03T13:15:29.660Z,57.97
2022-11-03T13:20:32.778Z,58.23
2022-11-03T13:25:35.813Z,58.12
2022-11-03T13:30:41.432Z,58.45
2022-11-03T13:35:44.441Z,58.85
2022-11-03T13:40:56.936Z,59.20
2022-11-03T13:46:03.948Z,58.75
2022-11-03T13:51:10.605Z,59.98
2022-11-03T13:56:19.495Z,60.03
2022-11-03T14:01:26.495Z,60.06
2022-11-03T14:06:29.484Z,61.13
2022-11-03T14:11:49.919Z,61.26
2022-11-03T14:16:54.560Z,61.85
2022-11-03T14:21:57.584Z,63.07
2022-11-03T14:27:00.752Z,63.11
2022-11-03T14:32:05.879Z,63.60
2022-11-03T14:37:09.299Z,64.36
2022-11-03T14:42:16.703Z,64.99
2022-11-03T14:47:21.978Z,65.09
2022-11-03T14:52:24.932Z,66.29
2022-11-03T14:57:27.859Z,67.05
2022-11-03T15:02:32.645Z,67.78
2022-11-03T15:07:35.756Z,68.06
2022-11-03T15:12:38.666Z,67.86
2022-11-03T15:17:43.164Z,68.88
2022-11-03T15:28:09.508Z,70.61
2022-11-03T15:38:21.854Z,71.23
2022-11-03T15:43:24.903Z,71.35
2022-11-03T15:48:33.545Z,71.24
2022-11-03T15:53:37.791Z,71.98
2022-11-03T15:58:40.891Z,71.94
2022-11-03T16:03:45.216Z,72.45
2022-11-03T16:08:48.244Z,72.04
2022-11-03T16:13:51.660Z,72.36
2022-11-03T16:18:55.998Z,72.23
2022-11-03T16:23:59.368Z,72.78
2022-11-03T16:29:05.835Z,72.30
2022-11-03T16:34:10.324Z,73.38
2022-11-03T16:39:13.460Z,73.83
2022-11-03T16:44:16.544Z,73.86
2022-11-03T16:49:21.078Z,74.86
2022-11-03T16:54:24.044Z,74.26
2022-11-03T16:59:27.436Z,75.48
2022-11-03T17:04:32.008Z,75.47
2022-11-03T17:09:34.964Z,75.66
2022-11-03T17:14:37.975Z,75.77
2022-11-03T17:19:42.354Z,76.99
2022-11-03T17:24:45.326Z,77.12
2022-11-03T17:29:51.164Z,77.28
2022-11-03T17:34:55.816Z,77.39
2022-11-03T17:39:58.844Z,77.12
2022-11-03T17:45:02.122Z,78.18
2022-11-03T17:50:07.346Z,77.79
2022-11-03T17:55:18.049Z,77.75
2022-11-03T18:00:22.385Z,78.00
2022-11-03T18:05:30.265Z,78.12
2022-11-03T18:10:35.668Z,78.11
2022-11-03T18:15:41.637Z,78.30
2022-11-03T18:20:53.099Z,78.76
2022-11-03T18:25:56.855Z,78.61
2022-11-03T18:30:59.831Z,79.52
2022-11-03T18:36:06.631Z,79.76
2022-11-03T18:41:28.864Z,79.55
2022-11-03T18:46:31.835Z,81.18
2022-11-03T18:51:36.498Z,80.41
2022-11-03T18:56:39.475Z,80.40
2022-11-03T19:01:42.540Z,81.00
2022-11-03T19:06:48.685Z,81.70
2022-11-03T19:11:53.798Z,80.98
2022-11-03T19:22:27.550Z,81.44
2022-11-03T19:27:34.582Z,82.35
2022-11-03T19:32:42.695Z,82.30
2022-11-03T19:37:48.770Z,82.26
2022-11-03T19:42:52.682Z,81.94
2022-11-03T19:48:28.843Z,82.22
2022-11-03T19:53:27.172Z,82.18
2022-11-03T19:58:30.775Z,82.27
2022-11-03T20:03:33.741Z,83.18
2022-11-03T20:08:38.538Z,83.66
2022-11-03T20:13:43.811Z,84.04
2022-11-03T20:18:48.364Z,83.67
2022-11-03T20:23:52.963Z,83.13
2022-11-03T20:28:57.336Z,81.95
2022-11-03T20:34:00.255Z,80.64
2022-11-03T20:39:05.003Z,80.33
2022-11-03T20:44:07.909Z,79.97
2022-11-03T20:49:11.372Z,79.59
2022-11-03T20:54:18.425Z,79.87
2022-11-03T20:59:24.576Z,79.83
2022-11-03T21:04:29.110Z,79.49
2022-11-03T21:09:33.395Z,79.73
2022-11-03T21:14:36.500Z,79.89
2022-11-03T21:19:57.190Z,79.43
2022-11-03T21:25:01.495Z,79.99
2022-11-03T21:30:05.318Z,79.96
2022-11-03T21:35:12.014Z,80.86
2022-11-03T21:40:16.873Z,81.33
2022-11-03T21:45:20.368Z,81.63
2022-11-03T21:50:23.303Z,82.27
2022-11-03T21:55:28.976Z,82.24
2022-11-03T22:00:32.135Z,82.46
2022-11-03T22:05:35.112Z,82.62
2022-11-03T22:10:40.885Z,82.81
2022-11-03T22:16:01.525Z,82.80
2022-11-03T22:21:21.754Z,83.31
2022-11-03T22:26:43.934Z,83.44
2022-11-03T22:31:46.935Z,83.29
2022-11-03T22:36:49.839Z,82.81
2022-11-03T22:42:11.373Z,83.04
2022-11-03T22:47:17.444Z,84.22
2022-11-03T22:52:21.623Z,83.73
2022-11-03T22:57:25.953Z,84.16
2022-11-03T23:02:28.946Z,83.57
2022-11-03T23:07:35.797Z,82.96
2022-11-03T23:12:42.733Z,81.09
2022-11-03T23:18:03.273Z,82.34
2022-11-03T23:23:06.543Z,79.50
2022-11-03T23:28:11.066Z,80.33
2022-11-03T23:33:13.947Z,80.70
2022-11-03T23:38:16.886Z,80.85
2022-11-03T23:43:21.151Z,81.94
2022-11-03T23:48:41.428Z,82.64
2022-11-03T23:53:45.441Z,82.27
2022-11-03T23:58:50.837Z,81.79
